createdAt,value
2023-03-17T06:00:16.184Z,13.70
2023-03-17T06:05:19.570Z,13.80
2023-03-17T06:10:23.283Z,13.80
2023-03-17T06:15:29.027Z,13.80
2023-03-17T06:20:32.637Z,10.90
2023-03-17T06:25:37.049Z,13.80
2023-03-17T06:30:42.012Z,13.80
2023-03-17T06:35:46.061Z,13.90
2023-03-17T06:40:49.435Z,13.90
2023-03-17T06:45:54.233Z,14.00
2023-03-17T06:50:57.725Z,13.90
2023-03-17T06:56:01.066Z,13.90
2023-03-17T07:01:07.741Z,13.80
2023-03-17T07:06:11.254Z,13.70
2023-03-17T07:11:14.782Z,13.60
2023-03-17T07:16:21.096Z,13.60
2023-03-17T07:21:24.694Z,13.60
2023-03-17T07:26:28.165Z,13.50
2023-03-17T07:31:33.122Z,13.70
2023-03-17T07:36:36.522Z,13.70
2023-03-17T07:41:40.058Z,13.70
2023-03-17T07:46:47.263Z,13.70
2023-03-17T07:51:50.695Z,13.60
2023-03-17T07:56:54.148Z,13.90
2023-03-17T08:02:01.333Z,13.60
2023-03-17T08:07:06.330Z,13.40
2023-03-17T08:12:10.371Z,13.50
2023-03-17T08:17:15.290Z,13.40
2023-03-17T08:22:19.365Z,13.40
2023-03-17T08:27:23.175Z,13.40
2023-03-17T08:32:27.968Z,13.50
2023-03-17T08:37:31.487Z,13.50
2023-03-17T08:42:34.835Z,13.50
2023-03-17T08:47:40.299Z,13.70
2023-03-17T08:52:43.694Z,13.70
2023-03-17T08:57:47.390Z,13.90
2023-03-17T09:02:52.262Z,13.90
2023-03-17T09:07:55.670Z,14.00
2023-03-17T09:13:03.143Z,14.10
2023-03-17T09:18:08.639Z,14.40
2023-03-17T09:23:12.121Z,14.90
2023-03-17T09:28:15.566Z,15.40
2023-03-17T09:33:20.302Z,16.10
2023-03-17T09:38:23.826Z,17.00
2023-03-17T09:43:29.894Z,17.80
2023-03-17T09:48:40.994Z,18.20
2023-03-17T09:53:48.834Z,18.40
2023-03-17T09:58:53.953Z,18.00
2023-03-17T10:03:58.830Z,17.60
2023-03-17T10:09:05.599Z,17.70
2023-03-17T10:14:18.254Z,18.10
2023-03-17T10:19:28.153Z,18.60
2023-03-17T10:24:32.840Z,18.80
2023-03-17T10:29:36.297Z,19.20
2023-03-17T10:34:41.565Z,19.30
2023-03-17T10:39:47.221Z,19.20
2023-03-17T10:44:51.920Z,18.20
2023-03-17T10:49:57.312Z,18.90
2023-03-17T10:55:06.953Z,18.50
2023-03-17T11:00:14.601Z,17.40
2023-03-17T11:05:23.556Z,17.70
2023-03-17T11:10:27.904Z,17.70
2023-03-17T11:15:34.161Z,18.30
2023-03-17T11:20:44.067Z,19.20
2023-03-17T11:25:50.721Z,19.70
2023-03-17T11:30:59.543Z,20.10
2023-03-17T11:36:10.665Z,20.10
2023-03-17T11:41:32.844Z,20.10
2023-03-17T11:46:38.214Z,20.00
2023-03-17T11:51:50.730Z,17.90
2023-03-17T11:56:55.859Z,19.40
2023-03-17T12:02:02.268Z,19.40
2023-03-17T12:07:11.946Z,19.80
2023-03-17T12:12:18.901Z,20.30
2023-03-17T12:17:25.873Z,21.00
2023-03-17T12:22:35.706Z,21.50
2023-03-17T12:27:42.405Z,21.80
2023-03-17T12:32:50.156Z,21.80
2023-03-17T12:37:55.174Z,22.90
2023-03-17T12:43:04.592Z,21.80
2023-03-17T12:48:19.522Z,21.80
2023-03-17T12:53:33.360Z,21.50
2023-03-17T12:58:38.942Z,21.00
2023-03-17T13:03:47.355Z,20.80
2023-03-17T13:08:53.660Z,20.70
2023-03-17T13:13:59.586Z,20.60
2023-03-17T13:19:14.531Z,20.90
2023-03-17T13:24:36.269Z,20.60
2023-03-17T13:29:47.291Z,20.70
2023-03-17T13:34:53.098Z,20.60
2023-03-17T13:40:11.097Z,20.30
2023-03-17T13:45:18.752Z,20.40
2023-03-17T13:50:23.937Z,19.30
2023-03-17T13:55:36.552Z,19.10
2023-03-17T14:00:41.448Z,19.00
2023-03-17T14:05:47.778Z,19.00
2023-03-17T14:10:55.857Z,19.10
2023-03-17T14:16:03.866Z,19.30
2023-03-17T14:21:11.760Z,19.40
2023-03-17T14:26:16.710Z,19.50
2023-03-17T14:31:23.022Z,19.80
2023-03-17T14:36:27.215Z,19.10
2023-03-17T14:41:34.643Z,19.80
2023-03-17T14:46:38.700Z,19.60
2023-03-17T14:51:43.045Z,19.40
2023-03-17T14:56:49.770Z,19.00
2023-03-17T15:01:54.959Z,18.80
2023-03-17T15:06:59.596Z,18.70
2023-03-17T15:12:06.844Z,18.40
2023-03-17T15:17:16.866Z,18.20
2023-03-17T15:22:25.169Z,17.60
2023-03-17T15:27:30.126Z,15.30
2023-03-17T15:32:33.495Z,16.60
2023-03-17T15:37:36.910Z,16.50
2023-03-17T15:42:42.176Z,16.40
2023-03-17T15:47:46.999Z,16.40
2023-03-17T15:52:53.740Z,16.40
2023-03-17T15:57:58.775Z,16.80
2023-03-17T16:03:05.577Z,16.70
2023-03-17T16:08:11.410Z,16.70
2023-03-17T16:13:16.193Z,16.70
2023-03-17T16:18:21.253Z,16.90
2023-03-17T16:23:26.303Z,17.00
2023-03-17T16:28:31.982Z,17.20
2023-03-17T16:33:39.188Z,16.00
2023-03-17T16:38:42.644Z,16.60
2023-03-17T16:43:50.960Z,16.50
2023-03-17T16:48:54.335Z,16.40
2023-03-17T16:53:57.688Z,16.30
2023-03-17T16:59:02.584Z,16.20
2023-03-17T17:04:10.084Z,16.10
2023-03-17T17:09:13.499Z,16.10
2023-03-17T17:14:18.358Z,16.00
2023-03-17T17:19:22.045Z,15.90
2023-03-17T17:24:25.556Z,15.90
2023-03-17T17:29:32.329Z,15.90
2023-03-17T17:34:35.860Z,15.70
2023-03-17T17:39:39.146Z,15.70
2023-03-17T17:44:43.920Z,15.70
2023-03-17T17:49:47.237Z,15.60
2023-03-17T17:54:50.748Z,15.60
2023-03-17T17:59:55.853Z,15.60
2023-03-17T18:05:00.995Z,15.50
2023-03-17T18:10:04.758Z,15.40
2023-03-17T18:15:11.161Z,15.40
2023-03-17T18:20:16.321Z,15.30
2023-03-17T18:25:20.234Z,15.40
2023-03-17T18:30:26.393Z,15.40
2023-03-17T18:35:29.965Z,15.40
2023-03-17T18:40:33.860Z,15.40
2023-03-17T18:45:38.836Z,15.30
2023-03-17T18:50:42.279Z,15.30
2023-03-17T18:55:45.661Z,15.20
2023-03-17T19:00:50.872Z,15.20
2023-03-17T19:05:54.284Z,15.20
2023-03-17T19:10:57.666Z,15.20
2023-03-17T19:16:02.590Z,15.10
2023-03-17T19:21:06.333Z,15.10
2023-03-17T19:26:10.490Z,14.90
2023-03-17T19:31:15.390Z,14.70
2023-03-17T19:36:18.808Z,14.60
2023-03-17T19:41:22.131Z,14.60
2023-03-17T19:46:27.267Z,14.50
2023-03-17T19:51:30.902Z,14.00
2023-03-17T19:56:34.305Z,14.30
2023-03-17T20:01:39.462Z,14.20
2023-03-17T20:06:42.838Z,14.10
2023-03-17T20:11:46.299Z,14.10
2023-03-17T20:16:52.073Z,13.90
2023-03-17T20:21:55.431Z,14.00
2023-03-17T20:26:59.566Z,13.90
2023-03-17T20:32:04.762Z,14.00
2023-03-17T20:37:08.679Z,13.90
2023-03-17T20:42:14.558Z,13.80
2023-03-17T20:47:19.437Z,13.80
2023-03-17T20:52:22.799Z,14.10
2023-03-17T20:57:26.354Z,13.80
2023-03-17T21:02:31.226Z,13.90
2023-03-17T21:07:34.852Z,13.70
2023-03-17T21:12:38.346Z,13.80
2023-03-17T21:17:43.242Z,13.80
2023-03-17T21:22:46.592Z,13.90
2023-03-17T21:27:50.480Z,13.80
2023-03-17T21:32:55.688Z,13.80
2023-03-17T21:37:59.123Z,13.80
2023-03-17T21:43:02.492Z,12.50
2023-03-17T21:48:07.418Z,13.70
2023-03-17T21:53:11.011Z,13.70
2023-03-17T21:58:14.402Z,13.70
2023-03-17T22:03:19.219Z,13.80
2023-03-17T22:08:23.538Z,13.70
2023-03-17T22:13:27.127Z,13.70
2023-03-17T22:18:32.469Z,13.70
2023-03-17T22:23:40.833Z,13.80
2023-03-17T22:28:44.911Z,13.60
2023-03-17T22:33:50.092Z,13.70
2023-03-17T22:38:53.462Z,13.60
2023-03-17T22:43:56.910Z,13.50
2023-03-17T22:49:01.682Z,13.50
2023-03-17T22:54:05.344Z,13.50
2023-03-17T22:59:08.719Z,13.40
2023-03-17T23:04:14.093Z,13.40
2023-03-17T23:09:17.486Z,13.40
2023-03-17T23:14:20.794Z,13.40
2023-03-17T23:19:25.801Z,13.30
2023-03-17T23:24:29.135Z,13.30
2023-03-17T23:29:32.800Z,13.30
